Time;durP1;ratioP1;P1;durP2;ratioP2;P2;SDS_P1;SDS_P2;PMS_P1;PMS_P2;Temp;Humidity;BMP_temperature;BMP_pressure;BME280_temperature;BME280_humidity;BME280_pressure;Samples;Min_cycle;Max_cycle;Signal;HPM_P1;HPM_P2
2023/08/12 00:01:50;;;;;;;9.30;8.03;;;22.80;99.90;;;;;;4980662;28;20204;-77
2023/08/12 00:04:16;;;;;;;7.53;6.80;;;22.80;99.90;;;;;;4974059;28;20208;-77
2023/08/12 00:06:42;;;;;;;9.83;7.30;;;22.80;99.90;;;;;;4973567;28;20184;-77
2023/08/12 00:09:11;;;;;;;9.33;6.63;;;22.80;99.90;;;;;;4974807;28;21055;-77
2023/08/12 00:11:38;;;;;;;8.47;6.53;;;22.80;99.90;;;;;;4969242;28;20596;-78
2023/08/12 00:14:04;;;;;;;11.13;8.07;;;22.80;99.90;;;;;;4975213;28;20646;-77
2023/08/12 00:16:30;;;;;;;8.53;7.13;;;22.80;99.90;;;;;;4961506;28;20674;-77
2023/08/12 00:18:55;;;;;;;7.90;7.00;;;22.80;99.90;;;;;;4991273;28;20622;-77
2023/08/12 00:21:21;;;;;;;9.07;7.30;;;22.80;99.90;;;;;;4975940;28;20202;-77
2023/08/12 00:23:49;;;;;;;10.13;8.10;;;22.80;99.90;;;;;;4968979;28;20176;-78
2023/08/12 00:26:15;;;;;;;11.47;7.57;;;22.80;99.90;;;;;;4964833;28;20192;-77
2023/08/12 00:28:41;;;;;;;10.67;8.37;;;22.80;99.90;;;;;;4982584;28;20588;-77
2023/08/12 00:31:07;;;;;;;8.23;5.90;;;22.80;99.90;;;;;;4956228;28;20718;-78
2023/08/12 00:33:32;;;;;;;7.77;7.00;;;22.80;99.90;;;;;;4955328;28;20587;-77
2023/08/12 00:35:58;;;;;;;7.97;7.03;;;22.80;99.90;;;;;;4956296;28;21192;-78
2023/08/12 00:38:24;;;;;;;8.77;7.47;;;22.80;99.90;;;;;;4982909;28;20299;-78
2023/08/12 00:40:50;;;;;;;8.60;7.80;;;22.80;99.90;;;;;;4974020;28;20207;-78
2023/08/12 00:43:16;;;;;;;11.03;7.50;;;22.80;99.90;;;;;;4974375;28;20699;-77
2023/08/12 00:45:42;;;;;;;10.23;6.50;;;22.80;99.90;;;;;;4975445;28;20591;-78
2023/08/12 00:48:09;;;;;;;8.80;7.83;;;22.70;99.90;;;;;;4974131;28;20184;-77
2023/08/12 00:50:37;;;;;;;9.00;8.10;;;22.70;99.90;;;;;;4958735;28;20618;-78
2023/08/12 00:53:05;;;;;;;8.80;7.90;;;22.70;99.90;;;;;;4974314;28;20727;-78
2023/08/12 00:55:36;;;;;;;9.90;6.63;;;22.70;99.90;;;;;;4956588;28;20587;-78
2023/08/12 00:58:03;;;;;;;10.20;8.33;;;22.70;99.90;;;;;;4968775;28;20650;-78
2023/08/12 01:00:29;;;;;;;10.00;7.80;;;22.70;99.90;;;;;;4962289;28;20634;-77
2023/08/12 01:02:56;;;;;;;9.53;8.60;;;22.60;99.90;;;;;;4970558;28;20608;-77
2023/08/12 01:05:23;;;;;;;9.47;7.07;;;22.60;99.90;;;;;;4965556;28;20602;-78
2023/08/12 01:07:49;;;;;;;8.63;7.80;;;22.60;99.90;;;;;;4957100;28;21358;-77
2023/08/12 01:10:16;;;;;;;8.03;7.13;;;22.50;99.90;;;;;;4955935;28;20647;-77
2023/08/12 01:12:58;;;;;;;11.23;8.20;;;22.50;99.90;;;;;;4959955;28;20203;-77
2023/08/12 01:15:26;;;;;;;8.67;6.93;;;22.60;99.90;;;;;;4957263;28;20590;-77
2023/08/12 01:17:54;;;;;;;9.60;7.30;;;22.50;99.90;;;;;;4972433;28;20639;-77
2023/08/12 01:20:24;;;;;;;8.50;7.53;;;22.50;99.90;;;;;;4969548;28;20689;-77
2023/08/12 01:22:57;;;;;;;8.07;7.20;;;22.50;99.90;;;;;;4940167;28;20602;-77
2023/08/12 01:25:27;;;;;;;8.13;7.40;;;22.50;99.90;;;;;;4966650;28;20595;-77
2023/08/12 01:27:56;;;;;;;11.73;8.03;;;22.50;99.90;;;;;;4969790;28;21284;-78
2023/08/12 01:30:23;;;;;;;10.23;7.90;;;22.50;99.90;;;;;;4961807;28;20627;-77
2023/08/12 01:32:56;;;;;;;9.27;8.17;;;22.50;99.90;;;;;;4969162;28;20621;-77
2023/08/12 01:35:43;;;;;;;8.67;7.83;;;22.50;99.90;;;;;;4989502;28;20661;-77
2023/08/12 01:38:10;;;;;;;9.40;8.50;;;22.50;99.90;;;;;;4989432;28;20744;-77
2023/08/12 01:40:38;;;;;;;9.60;8.60;;;22.50;99.90;;;;;;4968000;28;21004;-77
2023/08/12 01:43:04;;;;;;;9.70;8.77;;;22.40;99.90;;;;;;4955760;28;20595;-77
2023/08/12 01:45:33;;;;;;;8.93;8.03;;;22.40;99.90;;;;;;4979919;28;20572;-76
2023/08/12 01:48:01;;;;;;;8.53;7.57;;;22.40;99.90;;;;;;4986821;28;20753;-77
2023/08/12 01:50:27;;;;;;;9.90;8.10;;;22.40;99.90;;;;;;4965947;28;20639;-77
2023/08/12 01:52:52;;;;;;;9.97;9.07;;;22.30;99.90;;;;;;4972377;28;21201;-77
2023/08/12 01:55:18;;;;;;;9.53;8.63;;;22.30;99.90;;;;;;4989420;28;20581;-77
2023/08/12 01:57:44;;;;;;;10.57;9.40;;;22.30;99.90;;;;;;4972987;28;20211;-77
2023/08/12 02:00:11;;;;;;;10.57;9.03;;;22.30;99.90;;;;;;4987271;28;20227;-77
2023/08/12 02:02:45;;;;;;;11.37;9.70;;;22.30;99.90;;;;;;4975693;28;20590;-76
2023/08/12 02:05:12;;;;;;;15.40;11.90;;;22.30;99.90;;;;;;4963414;28;20595;-77
2023/08/12 02:07:38;;;;;;;13.40;12.00;;;22.30;99.90;;;;;;4966617;28;20679;-77
2023/08/12 02:10:04;;;;;;;13.20;11.77;;;22.30;99.90;;;;;;4971495;28;21083;-77
2023/08/12 02:12:31;;;;;;;12.80;11.10;;;22.30;99.90;;;;;;4957575;28;20222;-77
2023/08/12 02:14:56;;;;;;;14.97;12.97;;;22.30;99.90;;;;;;4988840;28;20611;-77
2023/08/12 02:17:23;;;;;;;14.47;12.37;;;22.30;99.90;;;;;;4945387;28;20263;-77
2023/08/12 02:19:51;;;;;;;12.50;11.20;;;22.30;99.90;;;;;;4961048;28;20774;-77
2023/08/12 02:22:16;;;;;;;13.50;11.60;;;22.30;99.90;;;;;;4979172;28;21212;-77
2023/08/12 02:24:42;;;;;;;14.10;12.10;;;22.30;99.90;;;;;;4972389;28;20171;-77
2023/08/12 02:27:08;;;;;;;15.03;12.53;;;22.30;99.90;;;;;;4970632;28;20211;-77
2023/08/12 02:29:34;;;;;;;14.27;11.90;;;22.30;99.90;;;;;;4957416;28;20192;-77
2023/08/12 02:31:59;;;;;;;16.57;14.87;;;22.30;99.90;;;;;;4987873;28;20188;-76
2023/08/12 02:34:25;;;;;;;14.23;12.70;;;22.20;99.90;;;;;;4972727;28;20172;-77
2023/08/12 02:36:51;;;;;;;14.23;12.73;;;22.20;99.90;;;;;;4974302;28;20320;-77
2023/08/12 02:39:17;;;;;;;15.27;12.90;;;22.20;99.90;;;;;;4980047;28;20215;-76
2023/08/12 02:41:43;;;;;;;12.73;11.27;;;22.20;99.90;;;;;;4953776;28;20216;-77
2023/08/12 02:44:09;;;;;;;16.63;13.50;;;22.20;99.90;;;;;;4986444;28;20626;-77
2023/08/12 02:46:35;;;;;;;14.93;13.53;;;22.20;99.90;;;;;;4968313;28;20195;-78
2023/08/12 02:49:01;;;;;;;15.20;13.60;;;22.20;99.90;;;;;;4969727;28;21169;-77
2023/08/12 02:51:26;;;;;;;14.00;12.47;;;22.20;99.90;;;;;;4969032;28;20651;-78
2023/08/12 02:53:52;;;;;;;14.77;11.43;;;22.20;99.90;;;;;;4978937;28;20266;-78
2023/08/12 02:56:18;;;;;;;14.10;12.17;;;22.20;99.90;;;;;;4962902;28;20184;-77
2023/08/12 02:58:43;;;;;;;13.43;11.83;;;22.20;99.90;;;;;;4950066;28;20175;-77
2023/08/12 03:01:41;;;;;;;12.93;11.63;;;22.20;99.90;;;;;;4986229;28;20565;-77
2023/08/12 03:04:07;;;;;;;13.07;9.80;;;22.20;99.90;;;;;;4984356;28;20180;-78
2023/08/12 03:06:33;;;;;;;13.30;10.17;;;22.20;99.90;;;;;;4960207;28;20647;-78
2023/08/12 03:08:59;;;;;;;13.17;10.30;;;22.20;99.90;;;;;;4983804;28;20203;-78
2023/08/12 03:11:24;;;;;;;8.17;7.37;;;22.30;99.90;;;;;;4956510;28;20176;-78
2023/08/12 03:17:41;;;;;;;8.27;7.47;;;22.20;99.90;;;;;;4961006;28;20720;-78
2023/08/12 03:20:08;;;;;;;10.93;7.90;;;22.30;99.90;;;;;;4936093;28;20619;-78
2023/08/12 03:22:36;;;;;;;9.70;8.57;;;22.30;99.90;;;;;;4970082;28;20595;-78
2023/08/12 03:25:49;;;;;;;12.93;10.13;;;22.20;99.90;;;;;;4942421;28;20591;-79
2023/08/12 03:32:02;;;;;;;10.30;9.27;;;22.20;99.90;;;;;;4968992;28;20595;-78
2023/08/12 03:34:32;;;;;;;10.30;8.80;;;22.30;99.90;;;;;;4960182;28;20592;-78
2023/08/12 03:37:04;;;;;;;11.20;8.70;;;22.30;99.90;;;;;;4952027;28;21431;-77
2023/08/12 03:43:42;;;;;;;9.50;8.53;;;22.20;99.90;;;;;;4981563;28;20600;-78
2023/08/12 03:46:09;;;;;;;9.80;8.83;;;22.20;99.90;;;;;;4943415;28;20587;-78
2023/08/12 03:48:35;;;;;;;10.23;9.23;;;22.20;99.90;;;;;;4967115;28;20592;-78
2023/08/12 03:51:00;;;;;;;8.90;7.87;;;22.20;99.90;;;;;;4953053;28;20211;-78
2023/08/12 03:53:26;;;;;;;9.67;7.17;;;22.20;99.90;;;;;;4953407;28;20177;-78
2023/08/12 03:55:56;;;;;;;7.77;7.03;;;22.20;99.90;;;;;;4967676;28;20596;-79
2023/08/12 03:58:22;;;;;;;9.03;7.40;;;22.10;99.90;;;;;;4984833;28;20644;-78
2023/08/12 04:00:48;;;;;;;7.33;6.63;;;22.10;99.90;;;;;;4963962;28;20989;-78
2023/08/12 04:03:15;;;;;;;10.57;7.80;;;22.10;99.90;;;;;;4962646;28;20584;-78
2023/08/12 04:05:52;;;;;;;6.30;5.70;;;22.00;99.90;;;;;;4962883;28;21176;-79
2023/08/12 04:08:21;;;;;;;7.47;6.70;;;22.00;99.90;;;;;;4962590;28;20190;-78
2023/08/12 04:10:47;;;;;;;10.00;6.77;;;22.00;99.90;;;;;;4965194;28;20623;-79
2023/08/12 04:21:34;;;;;;;6.10;5.50;;;21.80;99.90;;;;;;4961803;28;21335;-77
2023/08/12 04:24:00;;;;;;;8.50;6.10;;;21.70;99.90;;;;;;4982467;28;20591;-78
2023/08/12 04:26:26;;;;;;;7.60;6.80;;;21.70;99.90;;;;;;4971887;28;20702;-78
2023/08/12 04:28:53;;;;;;;6.37;5.50;;;21.70;99.90;;;;;;4971067;28;20603;-78
2023/08/12 04:31:18;;;;;;;9.43;5.57;;;21.70;99.90;;;;;;4953011;28;20654;-78
2023/08/12 04:34:16;;;;;;;9.47;6.90;;;21.60;99.90;;;;;;4963684;28;20163;-78
2023/08/12 04:37:16;;;;;;;7.13;6.53;;;21.60;99.90;;;;;;4969700;28;20642;-78
2023/08/12 04:39:43;;;;;;;7.40;6.40;;;21.60;99.90;;;;;;4957672;28;20632;-78
2023/08/12 04:42:10;;;;;;;8.00;7.20;;;21.60;99.90;;;;;;4959311;28;20587;-78
2023/08/12 04:44:36;;;;;;;9.70;6.80;;;21.60;99.90;;;;;;4970471;28;20619;-78
2023/08/12 04:47:02;;;;;;;9.60;6.50;;;21.60;99.90;;;;;;5000115;23;20749;-73
2023/08/12 04:49:31;;;;;;;5.03;4.57;;;21.60;99.90;;;;;;4954596;28;20167;-72
2023/08/12 04:51:56;;;;;;;7.03;6.13;;;21.70;99.90;;;;;;4970557;28;20590;-73
2023/08/12 04:54:22;;;;;;;7.20;5.97;;;21.70;99.90;;;;;;4951372;28;20165;-73
2023/08/12 04:56:48;;;;;;;5.63;5.10;;;21.70;99.90;;;;;;4945768;28;20196;-72
2023/08/12 04:59:14;;;;;;;6.43;5.67;;;21.80;99.90;;;;;;4938347;28;20989;-73
2023/08/12 05:01:41;;;;;;;5.57;4.83;;;21.80;99.90;;;;;;4936072;29;20181;-73
2023/08/12 05:04:07;;;;;;;5.20;4.60;;;21.80;99.90;;;;;;4951328;29;20588;-72
2023/08/12 05:06:33;;;;;;;6.57;4.83;;;21.80;99.90;;;;;;4938673;28;20200;-73
2023/08/12 05:08:59;;;;;;;7.10;6.20;;;21.90;99.90;;;;;;4955980;29;20600;-73
2023/08/12 05:11:25;;;;;;;6.67;5.73;;;21.90;99.90;;;;;;4968801;28;20181;-73
2023/08/12 05:13:51;;;;;;;6.93;5.17;;;22.00;99.90;;;;;;4933105;29;20614;-73
2023/08/12 05:16:16;;;;;;;7.37;4.83;;;22.00;99.90;;;;;;4953662;28;20595;-72
2023/08/12 05:18:42;;;;;;;5.63;4.47;;;22.10;99.90;;;;;;4939530;29;20216;-73
2023/08/12 05:21:08;;;;;;;5.17;4.60;;;22.10;99.90;;;;;;4923170;29;20193;-73
2023/08/12 05:23:33;;;;;;;6.37;5.67;;;22.20;99.90;;;;;;4943260;29;20181;-73
2023/08/12 05:25:59;;;;;;;5.53;4.93;;;22.20;99.90;;;;;;4962380;28;20671;-73
2023/08/12 05:28:25;;;;;;;4.73;3.87;;;22.20;99.90;;;;;;4937471;29;20201;-73
2023/08/12 05:30:54;;;;;;;5.30;4.83;;;22.20;99.90;;;;;;4962288;28;20650;-72
2023/08/12 05:37:07;;;;;;;6.27;4.60;;;22.20;99.90;;;;;;4936228;29;20654;-73
2023/08/12 05:39:33;;;;;;;6.90;4.70;;;22.30;99.90;;;;;;4946860;29;20675;-73
2023/08/12 05:41:59;;;;;;;4.77;4.27;;;22.40;99.90;;;;;;4966865;28;20185;-72
2023/08/12 05:44:24;;;;;;;6.07;5.00;;;22.40;99.90;;;;;;4949028;29;20629;-73
2023/08/12 05:50:39;;;;;;;5.10;4.67;;;22.40;99.90;;;;;;4951019;29;20189;-72
2023/08/12 05:53:05;;;;;;;6.73;5.60;;;22.40;99.90;;;;;;4961060;29;20647;-78
2023/08/12 05:55:34;;;;;;;5.67;4.97;;;22.40;99.90;;;;;;4959753;29;20661;-78
2023/08/12 06:01:47;;;;;;;5.77;4.70;;;22.10;99.90;;;;;;4963342;29;20595;-78
2023/08/12 06:04:13;;;;;;;6.00;5.50;;;22.00;99.90;;;;;;4983052;28;20576;-79
2023/08/12 06:10:26;;;;;;;5.80;5.27;;;21.90;99.90;;;;;;4976283;28;20184;-79
2023/08/12 06:12:52;;;;;;;6.37;5.77;;;21.80;99.90;;;;;;4991578;28;20616;-79
2023/08/12 06:15:18;;;;;;;9.23;5.77;;;21.80;99.90;;;;;;4976077;28;20173;-78
2023/08/12 06:29:07;;;;;;;5.40;4.40;;;21.60;99.90;;;;;;4963400;29;20602;-79
2023/08/12 06:32:17;;;;;;;14.90;7.50;;;21.60;99.90;;;;;;4955182;28;20581;-79
2023/08/12 06:35:26;;;;;;;6.40;4.87;;;21.50;99.90;;;;;;4943637;29;20255;-78
2023/08/12 06:37:52;;;;;;;6.73;4.53;;;21.40;99.90;;;;;;4933729;29;21218;-76
2023/08/12 06:40:17;;;;;;;3.93;3.50;;;21.40;99.90;;;;;;4935472;29;20604;-77
2023/08/12 06:46:31;;;;;;;4.93;4.17;;;21.30;99.90;;;;;;4967875;28;20183;-76
2023/08/12 06:48:59;;;;;;;5.20;3.50;;;21.30;99.90;;;;;;4947577;28;20600;-76
2023/08/12 06:51:24;;;;;;;3.90;3.60;;;21.30;99.90;;;;;;4937030;28;20320;-76
2023/08/12 06:53:50;;;;;;;6.33;3.30;;;21.40;99.90;;;;;;4963902;28;20635;-76
2023/08/12 07:00:05;;;;;;;3.67;2.90;;;21.50;99.90;;;;;;4944491;29;20191;-77
2023/08/12 07:02:30;;;;;;;2.93;2.10;;;21.70;99.90;;;;;;4948086;29;20660;-77
2023/08/12 07:05:06;;;;;;;2.50;2.30;;;21.70;99.90;;;;;;4954771;29;21182;-76
2023/08/12 07:07:31;;;;;;;4.20;2.23;;;21.80;99.90;;;;;;4956068;28;20201;-77
2023/08/12 07:17:33;;;;;;;3.90;2.83;;;22.20;99.90;;;;;;4947347;29;20731;-76
2023/08/12 07:19:58;;;;;;;2.77;1.80;;;22.20;99.90;;;;;;4952818;29;20582;-76
2023/08/12 07:22:24;;;;;;;3.00;2.20;;;22.10;99.90;;;;;;4947600;29;20207;-76
2023/08/12 07:28:37;;;;;;;2.77;1.70;;;22.20;99.90;;;;;;4947063;29;20526;-77
2023/08/12 07:31:02;;;;;;;3.23;2.17;;;22.40;99.90;;;;;;4937942;29;20601;-77
2023/08/12 07:33:28;;;;;;;5.03;1.70;;;22.50;99.90;;;;;;4942606;29;20647;-77
2023/08/12 07:35:54;;;;;;;2.30;1.10;;;22.50;99.90;;;;;;4934612;29;20232;-77
2023/08/12 07:38:19;;;;;;;1.80;1.20;;;22.60;99.90;;;;;;4964708;28;20208;-77
2023/08/12 07:40:45;;;;;;;3.60;1.20;;;22.60;99.90;;;;;;4942330;29;20284;-76
2023/08/12 07:43:11;;;;;;;4.97;1.87;;;22.60;99.90;;;;;;4962072;28;20560;-76
2023/08/12 07:45:37;;;;;;;2.47;1.50;;;22.70;99.90;;;;;;4981877;28;20197;-77
2023/08/12 07:48:03;;;;;;;2.83;1.53;;;22.80;99.90;;;;;;4959759;28;20258;-76
2023/08/12 07:50:29;;;;;;;6.80;1.50;;;22.90;99.90;;;;;;4932295;29;20184;-76
2023/08/12 07:52:55;;;;;;;2.53;1.43;;;23.00;99.90;;;;;;4959539;28;20659;-76
2023/08/12 07:55:21;;;;;;;2.30;1.67;;;23.10;99.90;;;;;;4942452;29;20986;-78
2023/08/12 07:57:46;;;;;;;2.70;1.67;;;23.20;99.90;;;;;;4940875;28;20209;-77
2023/08/12 08:00:12;;;;;;;2.40;1.67;;;23.60;99.90;;;;;;4941980;29;20558;-77
2023/08/12 08:02:39;;;;;;;2.43;1.50;;;24.10;99.90;;;;;;4946910;29;20179;-77
2023/08/12 08:05:05;;;;;;;3.43;1.30;;;24.60;99.90;;;;;;4944304;29;20625;-77
2023/08/12 08:11:19;;;;;;;4.93;1.60;;;24.80;99.90;;;;;;4949710;29;20595;-77
2023/08/12 08:13:44;;;;;;;2.80;1.70;;;24.80;99.90;;;;;;4946317;29;20611;-77
2023/08/12 08:16:10;;;;;;;2.00;1.10;;;24.70;99.90;;;;;;4943597;29;20181;-76
2023/08/12 08:22:24;;;;;;;3.87;1.23;;;24.60;99.90;;;;;;4958607;28;20197;-76
2023/08/12 08:24:50;;;;;;;2.33;1.33;;;24.50;99.90;;;;;;4949248;29;20586;-77
2023/08/12 08:27:15;;;;;;;1.80;1.50;;;24.40;99.90;;;;;;4945779;29;20621;-77
2023/08/12 08:29:44;;;;;;;2.43;1.83;;;24.40;99.90;;;;;;4947136;29;20177;-76
2023/08/12 08:32:09;;;;;;;2.80;1.37;;;24.30;99.90;;;;;;4948973;28;21180;-77
2023/08/12 08:34:35;;;;;;;2.07;1.20;;;24.20;99.90;;;;;;4946651;28;20181;-77
2023/08/12 08:37:01;;;;;;;3.23;1.20;;;24.20;99.90;;;;;;4938245;29;20735;-76
2023/08/12 08:39:26;;;;;;;2.67;1.20;;;24.20;99.90;;;;;;4943444;29;20177;-77
2023/08/12 08:41:55;;;;;;;2.10;1.20;;;24.20;99.90;;;;;;4943868;29;20522;-76
2023/08/12 08:44:23;;;;;;;2.67;1.47;;;24.20;99.90;;;;;;4937269;29;20169;-76
2023/08/12 08:46:53;;;;;;;2.67;1.30;;;24.20;99.90;;;;;;4936767;29;20650;-76
2023/08/12 08:49:19;;;;;;;3.80;1.33;;;24.10;99.90;;;;;;4935077;29;21162;-76
2023/08/12 08:51:46;;;;;;;2.20;1.20;;;24.10;99.90;;;;;;4934856;29;20597;-76
2023/08/12 08:54:13;;;;;;;2.93;1.37;;;24.10;99.90;;;;;;4934727;29;20687;-76
2023/08/12 08:56:39;;;;;;;2.77;1.33;;;24.20;99.90;;;;;;4951223;28;20635;-76
2023/08/12 08:59:05;;;;;;;1.50;1.00;;;24.30;99.90;;;;;;4935220;29;21212;-76
2023/08/12 09:01:31;;;;;;;1.70;1.07;;;24.30;99.90;;;;;;4950660;29;20596;-77
2023/08/12 09:03:57;;;;;;;2.97;1.20;;;24.40;99.90;;;;;;4943229;28;20181;-76
2023/08/12 09:06:28;;;;;;;4.30;1.33;;;24.50;99.90;;;;;;4946394;28;20698;-77
2023/08/12 09:08:54;;;;;;;1.90;1.07;;;24.70;99.90;;;;;;4954626;29;20588;-77
2023/08/12 09:11:20;;;;;;;2.37;1.10;;;25.00;99.90;;;;;;4940057;29;20597;-77
2023/08/12 09:13:47;;;;;;;4.23;1.03;;;25.20;99.90;;;;;;4927334;29;20687;-76
2023/08/12 09:16:13;;;;;;;1.80;0.97;;;25.30;99.90;;;;;;4936946;28;20597;-77
2023/08/12 09:18:42;;;;;;;2.57;1.50;;;25.60;99.90;;;;;;4947695;29;20643;-77
2023/08/12 09:28:42;;;;;;;4.70;1.20;;;26.50;99.90;;;;;;4940893;29;22650;-77
2023/08/12 09:38:26;;;;;;;3.30;1.00;;;27.60;99.90;;;;;;4977637;28;20686;-76
2023/08/12 09:40:53;;;;;;;2.07;1.10;;;28.30;99.90;;;;;;4950089;28;20599;-76
2023/08/12 09:43:23;;;;;;;1.80;1.00;;;28.80;99.90;;;;;;4949708;28;21168;-76
2023/08/12 09:45:49;;;;;;;2.63;1.00;;;29.20;99.90;;;;;;4961703;28;20995;-76
2023/08/12 09:48:16;;;;;;;3.37;1.10;;;29.70;99.90;;;;;;4945487;29;20693;-76
2023/08/12 09:50:42;;;;;;;2.57;1.20;;;30.10;99.90;;;;;;4946932;28;20176;-76
2023/08/12 09:53:09;;;;;;;2.20;1.37;;;30.30;99.90;;;;;;4941055;28;20590;-76
2023/08/12 09:55:36;;;;;;;3.20;1.27;;;30.40;99.90;;;;;;4949607;29;20188;-76
2023/08/12 09:58:06;;;;;;;2.00;0.90;;;30.20;99.90;;;;;;4945912;28;20675;-76
2023/08/12 10:00:33;;;;;;;2.20;1.20;;;29.90;99.90;;;;;;4968222;28;20593;-76
2023/08/12 10:03:00;;;;;;;2.20;0.93;;;29.60;99.90;;;;;;4934518;29;20944;-75
2023/08/12 10:05:32;;;;;;;2.27;1.00;;;29.40;99.90;;;;;;4942118;28;20592;-76
2023/08/12 10:08:01;;;;;;;2.13;0.87;;;29.10;99.90;;;;;;4936955;29;20633;-76
2023/08/12 10:10:28;;;;;;;3.50;1.10;;;29.10;99.90;;;;;;4939156;29;20949;-75
2023/08/12 10:13:49;;;;;;;1.80;0.90;;;29.00;99.90;;;;;;4933332;29;21162;-76
2023/08/12 10:16:16;;;;;;;2.40;0.90;;;28.90;99.90;;;;;;4946252;29;20664;-76
2023/08/12 10:18:42;;;;;;;2.63;1.00;;;28.70;99.90;;;;;;4935885;29;20705;-75
2023/08/12 10:21:27;;;;;;;1.77;0.80;;;28.60;99.90;;;;;;4941387;28;20593;-76
2023/08/12 10:23:54;;;;;;;1.93;0.70;;;28.50;99.90;;;;;;4946956;29;20687;-76
2023/08/12 10:30:10;;;;;;;2.90;0.80;;;28.10;99.90;;;;;;4945362;29;20715;-76
2023/08/12 10:32:37;;;;;;;1.70;0.80;;;27.90;99.90;;;;;;4967000;28;20609;-75
2023/08/12 10:35:03;;;;;;;1.80;0.80;;;27.80;99.90;;;;;;4953352;28;20655;-76
2023/08/12 10:37:33;;;;;;;1.73;0.73;;;27.80;99.90;;;;;;4949249;28;21221;-75
2023/08/12 10:39:59;;;;;;;1.70;0.80;;;27.70;99.90;;;;;;4961596;28;20587;-74
2023/08/12 10:42:45;;;;;;;1.90;0.83;;;27.70;99.90;;;;;;4936843;29;20595;-74
2023/08/12 10:45:13;;;;;;;1.50;0.60;;;27.60;99.90;;;;;;4933372;29;20189;-74
2023/08/12 10:47:44;;;;;;;1.70;1.00;;;27.50;99.90;;;;;;4934214;29;20644;-74
2023/08/12 10:50:24;;;;;;;2.40;1.40;;;27.50;99.90;;;;;;4934394;29;20581;-74
2023/08/12 10:52:54;;;;;;;3.77;1.60;;;27.40;99.90;;;;;;4942671;29;20947;-74
2023/08/12 10:55:22;;;;;;;1.80;0.87;;;27.30;99.90;;;;;;4942397;29;20600;-74
2023/08/12 10:57:49;;;;;;;2.50;1.10;;;27.20;99.90;;;;;;4942158;29;20695;-75
2023/08/12 11:00:29;;;;;;;1.70;0.80;;;27.10;99.90;;;;;;4940065;29;21166;-74
2023/08/12 11:02:56;;;;;;;4.30;0.70;;;27.10;99.90;;;;;;4938027;29;20750;-74
2023/08/12 11:05:23;;;;;;;1.40;0.70;;;27.10;99.90;;;;;;4938379;28;20585;-74
2023/08/12 11:11:23;;;;;;;1.57;0.70;;;27.00;99.90;;;;;;4944918;29;20612;-76
2023/08/12 11:13:57;;;;;;;1.80;0.80;;;26.90;99.90;;;;;;4943629;29;20596;-75
2023/08/12 11:16:56;;;;;;;1.47;0.70;;;26.90;99.90;;;;;;4936053;29;20592;-76
2023/08/12 11:19:22;;;;;;;2.57;1.00;;;26.80;99.90;;;;;;4941351;29;20631;-76
2023/08/12 11:21:51;;;;;;;2.10;0.80;;;26.80;99.90;;;;;;4936376;29;20596;-76
2023/08/12 11:25:08;;;;;;;2.67;0.87;;;26.70;99.90;;;;;;4956426;29;20625;-78
2023/08/12 11:27:45;;;;;;;4.53;0.90;;;26.70;99.90;;;;;;4950747;28;20619;-78
2023/08/12 11:33:59;;;;;;;2.77;1.20;;;26.80;99.90;;;;;;4941856;29;20708;-78
2023/08/12 11:36:24;;;;;;;2.17;1.00;;;27.00;99.90;;;;;;4949686;29;20660;-78
2023/08/12 11:38:50;;;;;;;1.70;1.00;;;27.20;99.90;;;;;;4943812;29;20637;-79
2023/08/12 11:45:04;;;;;;;1.70;0.70;;;27.30;99.90;;;;;;4935012;29;20181;-78
2023/08/12 11:51:17;;;;;;;3.20;1.97;;;27.30;99.90;;;;;;4963441;28;20619;-78
2023/08/12 11:53:43;;;;;;;4.23;3.43;;;27.40;99.90;;;;;;4962880;29;20584;-79
2023/08/12 11:56:09;;;;;;;4.60;2.70;;;27.40;99.90;;;;;;4985983;28;20176;-78
2023/08/12 11:59:00;;;;;;;5.30;2.70;;;27.50;99.90;;;;;;4946712;29;20312;-79
2023/08/12 12:01:28;;;;;;;4.03;2.17;;;27.50;99.90;;;;;;4978493;28;20608;-79
2023/08/12 12:03:54;;;;;;;4.70;4.00;;;27.60;99.90;;;;;;4978191;28;20590;-79
2023/08/12 12:06:53;;;;;;;10.30;8.47;;;27.70;99.90;;;;;;4948787;28;20576;-78
2023/08/12 12:09:20;;;;;;;6.30;5.70;;;27.70;99.90;;;;;;4945337;29;20604;-78
2023/08/12 12:11:46;;;;;;;5.30;2.87;;;27.90;99.90;;;;;;4948633;29;20684;-78
2023/08/12 12:14:11;;;;;;;3.23;1.97;;;28.10;99.90;;;;;;4949066;29;20674;-79
2023/08/12 12:16:47;;;;;;;2.10;1.10;;;28.30;99.90;;;;;;4937527;29;20679;-80
2023/08/12 12:19:18;;;;;;;1.80;0.90;;;28.50;99.90;;;;;;4941915;29;20180;-80
2023/08/12 12:21:49;;;;;;;2.27;0.80;;;28.90;99.90;;;;;;4945793;29;20593;-80
2023/08/12 12:24:15;;;;;;;1.60;0.80;;;29.20;99.90;;;;;;4944650;29;20589;-79
2023/08/12 12:26:41;;;;;;;1.67;0.67;;;29.40;99.90;;;;;;4944406;28;20985;-78
2023/08/12 12:33:07;;;;;;;1.40;0.60;;;29.50;99.90;;;;;;4946777;28;20192;-80
2023/08/12 12:35:33;;;;;;;2.70;1.20;;;29.40;99.90;;;;;;4973477;28;20604;-80
2023/08/12 12:37:58;;;;;;;2.73;1.50;;;29.30;99.90;;;;;;4952863;28;20682;-80
2023/08/12 12:40:46;;;;;;;2.30;1.20;;;29.20;99.90;;;;;;4946031;29;20207;-80
2023/08/12 12:43:11;;;;;;;1.53;0.70;;;29.00;99.90;;;;;;4945408;28;20180;-80
2023/08/12 12:45:37;;;;;;;1.63;0.80;;;29.00;99.90;;;;;;4950396;28;20956;-80
2023/08/12 12:48:03;;;;;;;1.77;0.90;;;28.90;99.90;;;;;;4916957;29;20318;-80
2023/08/12 12:50:29;;;;;;;3.63;2.77;;;28.80;99.90;;;;;;4949933;29;20191;-79
2023/08/12 12:52:54;;;;;;;2.90;2.03;;;28.70;99.90;;;;;;4952007;29;20580;-79
2023/08/12 12:55:20;;;;;;;3.13;2.13;;;28.70;99.90;;;;;;4949103;28;20199;-79
2023/08/12 12:57:46;;;;;;;4.30;2.20;;;28.70;99.90;;;;;;4948490;28;20584;-79
2023/08/12 13:00:13;;;;;;;1.70;0.97;;;28.60;99.90;;;;;;4951984;29;20579;-78
2023/08/12 13:02:39;;;;;;;2.17;0.90;;;28.50;99.90;;;;;;4949026;29;20209;-78
2023/08/12 13:05:04;;;;;;;1.87;0.93;;;28.30;99.90;;;;;;4949591;28;20593;-78
2023/08/12 13:07:30;;;;;;;2.17;1.00;;;28.20;99.90;;;;;;4942864;28;20263;-79
2023/08/12 13:09:56;;;;;;;3.30;1.00;;;28.00;99.90;;;;;;4945959;29;20185;-78
2023/08/12 13:12:21;;;;;;;1.87;0.90;;;27.80;99.90;;;;;;4949115;29;20200;-79
2023/08/12 13:14:47;;;;;;;1.87;0.97;;;27.70;99.90;;;;;;4950077;28;20200;-80
2023/08/12 13:17:13;;;;;;;1.93;1.03;;;27.50;99.90;;;;;;4941533;29;20224;-80
2023/08/12 13:19:39;;;;;;;4.50;3.73;;;27.30;99.90;;;;;;4952009;28;20651;-80
2023/08/12 13:22:04;;;;;;;2.80;1.20;;;27.20;99.90;;;;;;4934509;29;20264;-80
2023/08/12 13:24:30;;;;;;;2.70;1.00;;;27.00;99.90;;;;;;4911625;29;20640;-80
2023/08/12 13:27:05;;;;;;;1.90;0.70;;;26.80;99.90;;;;;;4948733;28;20204;-80
2023/08/12 13:29:31;;;;;;;1.50;0.60;;;26.60;99.90;;;;;;4948574;29;20188;-79
2023/08/12 13:31:57;;;;;;;1.50;0.63;;;26.50;99.90;;;;;;4949723;29;20597;-79
2023/08/12 13:34:23;;;;;;;1.60;0.67;;;26.40;99.90;;;;;;4932444;29;20691;-80
2023/08/12 13:36:49;;;;;;;1.50;0.87;;;26.40;99.90;;;;;;4968784;28;20205;-80
2023/08/12 13:39:15;;;;;;;1.50;0.50;;;26.40;99.90;;;;;;4947977;29;20618;-80
2023/08/12 13:41:43;;;;;;;1.40;0.50;;;26.30;99.90;;;;;;4943822;29;20289;-79
2023/08/12 13:44:09;;;;;;;1.50;0.60;;;26.20;99.90;;;;;;4946369;28;20614;-80
2023/08/12 13:47:12;;;;;;;1.23;0.50;;;26.10;99.90;;;;;;4937224;29;23066;-78
2023/08/12 13:49:37;;;;;;;1.40;0.60;;;26.00;99.90;;;;;;4977017;28;20237;-79
2023/08/12 13:52:03;;;;;;;1.33;0.60;;;25.90;99.90;;;;;;4967414;28;20600;-79
2023/08/12 13:54:29;;;;;;;1.60;0.83;;;25.90;99.90;;;;;;4967480;28;20811;-81
2023/08/12 13:56:55;;;;;;;1.50;0.70;;;25.80;99.90;;;;;;4956497;28;20671;-81
2023/08/12 13:59:21;;;;;;;1.60;0.60;;;25.80;99.90;;;;;;4929315;29;20212;-81
2023/08/12 14:01:46;;;;;;;1.40;0.73;;;25.70;99.90;;;;;;4939909;29;20187;-79
2023/08/12 14:04:12;;;;;;;1.60;0.80;;;25.70;99.90;;;;;;4936473;29;20656;-79
2023/08/12 14:06:39;;;;;;;1.47;0.70;;;25.70;99.90;;;;;;4952593;28;20291;-79
2023/08/12 14:09:08;;;;;;;1.60;0.70;;;25.60;99.90;;;;;;4933342;29;20256;-79
2023/08/12 14:11:34;;;;;;;1.30;0.57;;;25.60;99.90;;;;;;4949440;28;20623;-79
2023/08/12 14:14:00;;;;;;;1.30;0.70;;;25.60;99.90;;;;;;4949442;28;21174;-79
2023/08/12 14:16:26;;;;;;;1.93;0.70;;;25.60;99.90;;;;;;4943910;28;20545;-79
2023/08/12 14:18:52;;;;;;;1.30;0.60;;;25.70;99.90;;;;;;4935110;29;20747;-79
2023/08/12 14:21:18;;;;;;;1.77;0.60;;;25.80;99.90;;;;;;4938234;29;20275;-79
2023/08/12 14:23:44;;;;;;;1.80;0.70;;;25.80;99.90;;;;;;4947184;29;20636;-79
2023/08/12 14:26:09;;;;;;;1.40;0.60;;;25.90;99.90;;;;;;4941876;29;20185;-79
2023/08/12 14:28:35;;;;;;;1.70;0.50;;;26.00;99.90;;;;;;4947603;28;20208;-79
2023/08/12 14:31:01;;;;;;;3.03;0.50;;;26.00;99.90;;;;;;4941076;29;20215;-80
2023/08/12 14:33:28;;;;;;;1.40;0.60;;;26.10;99.90;;;;;;4950546;28;20549;-80
2023/08/12 14:35:58;;;;;;;1.60;0.60;;;26.20;99.90;;;;;;4942433;28;20599;-79
2023/08/12 14:38:23;;;;;;;1.80;0.57;;;26.20;99.90;;;;;;4945200;28;20675;-80
2023/08/12 14:40:49;;;;;;;1.43;0.60;;;26.30;99.90;;;;;;4942902;29;20603;-79
2023/08/12 14:43:15;;;;;;;1.43;0.50;;;26.40;99.90;;;;;;4964033;28;20180;-80